createdAt,value
2019-04-30T00:02:34.391Z,16.02
2019-04-30T00:05:00.733Z,16.27
2019-04-30T00:07:32.537Z,18.50
2019-04-30T00:10:06.118Z,16.62
2019-04-30T00:12:39.662Z,17.48
2019-04-30T00:15:16.209Z,17.62
2019-04-30T00:17:45.997Z,17.90
2019-04-30T00:20:18.720Z,19.32
2019-04-30T00:22:50.869Z,16.90
2019-04-30T00:25:24.947Z,18.15
2019-04-30T00:28:00.244Z,17.17
2019-04-30T00:30:35.085Z,16.70
2019-04-30T00:33:08.163Z,16.50
2019-04-30T00:35:40.327Z,17.00
2019-04-30T00:38:15.132Z,16.93
2019-04-30T00:40:46.938Z,18.00
2019-04-30T00:43:18.791Z,17.95
2019-04-30T00:45:50.553Z,18.67
2019-04-30T00:48:27.994Z,17.20
2019-04-30T00:50:55.922Z,18.25
2019-04-30T00:53:27.824Z,16.32
2019-04-30T00:55:59.591Z,16.90
2019-04-30T00:58:32.004Z,16.93
2019-04-30T01:01:22.434Z,16.35
2019-04-30T01:04:00.055Z,16.65
2019-04-30T01:06:31.841Z,14.80
2019-04-30T01:09:05.418Z,15.05
2019-04-30T01:11:39.742Z,14.47
2019-04-30T01:14:13.368Z,14.90
2019-04-30T01:16:46.854Z,16.25
2019-04-30T01:19:29.170Z,16.30
2019-04-30T01:21:56.001Z,16.02
2019-04-30T01:24:31.435Z,16.73
2019-04-30T01:27:06.951Z,18.80
2019-04-30T01:29:40.753Z,19.30
2019-04-30T01:32:10.455Z,19.57
2019-04-30T01:34:44.233Z,20.43
2019-04-30T01:37:20.262Z,20.55
2019-04-30T01:39:50.607Z,19.40
2019-04-30T01:42:22.564Z,17.20
2019-04-30T01:44:55.966Z,17.70
2019-04-30T01:47:29.518Z,16.85
2019-04-30T01:50:04.876Z,17.92
2019-04-30T01:52:53.297Z,15.53
2019-04-30T01:55:50.076Z,13.80
2019-04-30T01:58:33.151Z,16.60
2019-04-30T02:01:09.110Z,15.63
2019-04-30T02:03:41.256Z,17.23
2019-04-30T02:06:13.141Z,17.30
2019-04-30T02:08:44.984Z,17.25
2019-04-30T02:11:19.095Z,17.17
2019-04-30T02:13:51.747Z,15.93
2019-04-30T02:16:23.482Z,15.03
2019-04-30T02:18:55.322Z,16.10
2019-04-30T02:21:29.924Z,14.78
2019-04-30T02:24:01.562Z,15.38
2019-04-30T02:26:33.713Z,14.43
2019-04-30T02:29:05.551Z,13.98
2019-04-30T02:31:37.330Z,14.65
2019-04-30T02:34:21.783Z,14.80
2019-04-30T02:36:59.844Z,15.03
2019-04-30T02:39:31.645Z,15.32
2019-04-30T02:42:03.746Z,13.83
2019-04-30T02:44:35.674Z,15.13
2019-04-30T02:47:10.475Z,14.75
2019-04-30T02:49:42.439Z,16.35
2019-04-30T02:52:15.898Z,14.58
2019-04-30T02:54:49.992Z,15.85
2019-04-30T02:57:23.699Z,16.12
2019-04-30T03:00:12.928Z,17.75
2019-04-30T03:02:46.331Z,17.82
2019-04-30T03:05:20.307Z,20.30
2019-04-30T03:07:53.536Z,17.92
2019-04-30T03:10:25.234Z,21.60
2019-04-30T03:13:00.173Z,23.65
2019-04-30T03:15:33.079Z,21.37
2019-04-30T03:18:25.075Z,22.65
2019-04-30T03:21:09.637Z,23.77
2019-04-30T03:23:40.999Z,24.27
2019-04-30T03:26:13.139Z,25.00
2019-04-30T03:28:44.942Z,24.10
2019-04-30T03:31:22.477Z,22.37
2019-04-30T03:33:52.736Z,22.25
2019-04-30T03:36:24.497Z,25.65
2019-04-30T03:38:56.298Z,18.25
2019-04-30T03:41:33.101Z,17.67
2019-04-30T03:44:17.274Z,18.75
2019-04-30T03:46:39.804Z,19.92
2019-04-30T03:49:13.405Z,23.05
2019-04-30T03:51:46.817Z,20.80
2019-04-30T03:54:19.519Z,20.12
2019-04-30T03:56:53.023Z,19.92
2019-04-30T03:59:24.890Z,19.57
2019-04-30T04:02:12.941Z,18.77
2019-04-30T04:04:52.812Z,19.35
2019-04-30T04:07:43.706Z,19.57
2019-04-30T04:10:34.292Z,18.85
2019-04-30T04:13:10.207Z,21.95
2019-04-30T04:15:42.007Z,20.65
2019-04-30T04:18:13.834Z,17.65
2019-04-30T04:20:45.974Z,16.52
2019-04-30T04:23:19.308Z,17.70
2019-04-30T04:25:51.395Z,17.27
2019-04-30T04:28:23.210Z,17.25
2019-04-30T04:30:55.404Z,18.32
2019-04-30T04:33:29.453Z,17.15
2019-04-30T04:36:01.906Z,18.30
2019-04-30T04:38:33.677Z,16.42
2019-04-30T04:41:05.422Z,18.32
2019-04-30T04:43:43.195Z,19.52
2019-04-30T04:46:15.397Z,18.87
2019-04-30T04:48:50.314Z,19.60
2019-04-30T04:51:36.804Z,21.23
2019-04-30T04:53:55.917Z,22.75
2019-04-30T04:56:30.246Z,21.48
2019-04-30T04:59:01.189Z,22.17
2019-04-30T05:01:35.680Z,22.60
2019-04-30T05:04:11.503Z,21.75
2019-04-30T05:06:41.536Z,23.70
2019-04-30T05:09:13.295Z,23.07
2019-04-30T05:11:45.031Z,22.60
2019-04-30T05:14:18.971Z,21.20
2019-04-30T05:16:55.285Z,20.35
2019-04-30T05:19:28.663Z,22.77
2019-04-30T05:22:01.077Z,21.17
2019-04-30T05:24:33.059Z,20.75
2019-04-30T05:27:04.877Z,21.60
2019-04-30T05:29:38.605Z,19.80
2019-04-30T05:32:10.330Z,20.88
2019-04-30T05:34:42.091Z,20.57
2019-04-30T05:37:14.220Z,18.52
2019-04-30T05:39:45.968Z,17.52
2019-04-30T05:42:18.497Z,17.00
2019-04-30T05:44:50.524Z,16.97
2019-04-30T05:47:22.388Z,16.42
2019-04-30T05:49:54.259Z,15.95
2019-04-30T05:52:29.519Z,17.05
2019-04-30T05:55:01.478Z,17.60
2019-04-30T05:57:33.259Z,17.25
2019-04-30T06:00:06.346Z,17.67
2019-04-30T06:02:39.925Z,18.15
2019-04-30T06:05:11.692Z,18.70
2019-04-30T06:07:43.611Z,18.00
2019-04-30T06:10:26.364Z,19.52
2019-04-30T06:13:09.083Z,21.12
2019-04-30T06:15:51.399Z,21.10
2019-04-30T06:18:23.152Z,19.25
2019-04-30T06:20:55.974Z,20.88
2019-04-30T06:23:29.379Z,20.37
2019-04-30T06:26:09.409Z,19.00
2019-04-30T06:28:36.657Z,21.35
2019-04-30T06:31:09.096Z,19.73
2019-04-30T06:33:41.554Z,20.52
2019-04-30T06:36:13.368Z,18.32
2019-04-30T06:38:45.599Z,19.35
2019-04-30T06:41:17.489Z,19.00
2019-04-30T06:43:49.289Z,18.45
2019-04-30T06:46:21.038Z,16.50
2019-04-30T06:48:54.982Z,21.02
2019-04-30T06:51:30.583Z,18.80
2019-04-30T06:54:00.530Z,18.60
2019-04-30T06:56:32.341Z,20.02
2019-04-30T06:59:04.239Z,19.40
2019-04-30T07:01:36.074Z,18.98
2019-04-30T07:04:07.832Z,18.98
2019-04-30T07:06:44.015Z,18.17
2019-04-30T07:09:43.610Z,18.60
2019-04-30T07:12:27.154Z,17.52
2019-04-30T07:14:52.253Z,15.25
2019-04-30T07:17:24.010Z,16.40
2019-04-30T07:20:01.301Z,16.45
2019-04-30T07:25:09.853Z,19.00
2019-04-30T07:27:42.946Z,17.90
2019-04-30T07:30:14.753Z,18.07
2019-04-30T07:32:48.230Z,18.75
2019-04-30T07:35:19.993Z,19.17
2019-04-30T07:37:54.686Z,18.40
2019-04-30T07:40:29.012Z,19.32
2019-04-30T07:43:00.350Z,19.70
2019-04-30T07:45:32.373Z,19.45
2019-04-30T07:48:04.429Z,18.75
2019-04-30T07:50:36.745Z,18.27
2019-04-30T07:53:11.205Z,18.98
2019-04-30T07:55:42.357Z,19.77
2019-04-30T07:58:14.121Z,18.57
2019-04-30T08:00:50.345Z,18.57
2019-04-30T08:03:40.349Z,19.55
2019-04-30T08:06:13.310Z,20.45
2019-04-30T08:08:45.593Z,21.02
2019-04-30T08:09:34.154Z,16.12
2019-04-30T08:11:25.629Z,20.00
2019-04-30T08:13:51.715Z,20.05
2019-04-30T08:16:24.247Z,19.10
2019-04-30T08:18:56.937Z,21.75
2019-04-30T08:21:34.322Z,22.77
2019-04-30T08:24:13.636Z,20.97
2019-04-30T08:26:47.019Z,21.30
2019-04-30T08:29:19.481Z,20.50
2019-04-30T08:31:51.447Z,20.17
2019-04-30T08:34:23.258Z,20.70
2019-04-30T08:36:56.341Z,20.15
2019-04-30T08:39:31.821Z,20.52
2019-04-30T08:42:04.070Z,19.67
2019-04-30T08:44:35.913Z,19.77
2019-04-30T08:47:11.627Z,20.08
2019-04-30T08:49:43.856Z,21.70
2019-04-30T08:52:15.897Z,22.52
2019-04-30T08:54:51.506Z,20.02
2019-04-30T08:57:24.398Z,22.02
2019-04-30T08:59:56.157Z,24.32
2019-04-30T09:02:31.067Z,22.67
2019-04-30T09:05:09.531Z,24.02
2019-04-30T09:07:42.297Z,20.57
2019-04-30T09:10:14.552Z,22.73
2019-04-30T09:12:46.323Z,21.93
2019-04-30T09:15:18.829Z,22.17
2019-04-30T09:18:00.743Z,22.60
2019-04-30T09:20:24.267Z,22.00
2019-04-30T09:22:56.086Z,21.82
2019-04-30T09:25:28.701Z,22.10
2019-04-30T09:28:00.616Z,21.52
2019-04-30T09:30:33.511Z,22.15
2019-04-30T09:33:05.278Z,22.00
2019-04-30T09:35:39.519Z,21.20
2019-04-30T09:38:11.587Z,24.63
2019-04-30T09:40:43.664Z,29.05
2019-04-30T09:43:15.851Z,25.65
2019-04-30T09:45:51.029Z,21.68
2019-04-30T09:48:25.354Z,22.90
2019-04-30T09:51:01.256Z,21.37
2019-04-30T09:53:33.368Z,21.48
2019-04-30T09:56:05.130Z,22.58
2019-04-30T09:58:40.463Z,31.17
2019-04-30T10:01:12.274Z,31.25
2019-04-30T10:03:44.528Z,33.45
2019-04-30T10:06:16.632Z,31.25
2019-04-30T10:08:51.333Z,23.80
2019-04-30T10:11:42.295Z,23.22
2019-04-30T10:14:14.420Z,35.33
2019-04-30T10:17:20.021Z,25.72
2019-04-30T10:19:54.352Z,22.00
2019-04-30T10:22:26.151Z,22.73
2019-04-30T10:24:59.694Z,21.05
2019-04-30T10:27:31.934Z,27.90
2019-04-30T10:30:03.767Z,22.22
2019-04-30T10:32:35.986Z,17.20
2019-04-30T10:35:07.804Z,20.17
2019-04-30T10:37:39.641Z,19.35
2019-04-30T10:40:11.475Z,19.15
2019-04-30T10:42:43.370Z,18.37
2019-04-30T10:45:15.176Z,16.48
2019-04-30T10:47:46.966Z,18.30
2019-04-30T10:50:21.353Z,18.27
2019-04-30T10:52:53.214Z,16.57
2019-04-30T10:55:24.977Z,15.98
2019-04-30T10:57:59.331Z,14.70
2019-04-30T11:00:39.434Z,16.42
2019-04-30T11:03:19.838Z,16.37
2019-04-30T11:05:45.975Z,16.30
2019-04-30T11:08:17.766Z,15.53
2019-04-30T11:10:49.534Z,18.30
2019-04-30T11:13:22.561Z,19.27
2019-04-30T11:15:54.305Z,20.12
2019-04-30T11:18:26.318Z,21.90
2019-04-30T11:20:59.762Z,19.62
2019-04-30T11:23:35.059Z,19.95
2019-04-30T11:26:07.568Z,20.72
2019-04-30T11:28:39.954Z,22.37
2019-04-30T11:31:36.750Z,21.97
2019-04-30T11:34:08.840Z,19.42
2019-04-30T11:36:42.487Z,19.45
2019-04-30T11:39:18.664Z,19.00
2019-04-30T11:41:50.622Z,19.37
2019-04-30T11:44:31.023Z,18.48
2019-04-30T11:47:29.723Z,19.17
2019-04-30T11:51:01.453Z,18.25
2019-04-30T11:53:33.450Z,16.15
2019-04-30T11:56:05.203Z,18.32
2019-04-30T11:58:38.927Z,17.50
2019-04-30T12:01:11.029Z,18.55
2019-04-30T12:03:42.769Z,17.73
2019-04-30T12:06:14.645Z,19.37
2019-04-30T12:09:03.784Z,16.82
2019-04-30T12:11:37.615Z,16.73
2019-04-30T12:14:09.224Z,16.90
2019-04-30T12:16:40.996Z,16.35
2019-04-30T12:19:13.334Z,17.32
2019-04-30T12:21:46.106Z,16.77
2019-04-30T12:24:17.867Z,16.67
2019-04-30T12:26:50.840Z,14.45
2019-04-30T12:29:22.657Z,14.55
2019-04-30T12:31:54.457Z,14.85
2019-04-30T12:34:26.209Z,15.63
2019-04-30T12:36:59.614Z,16.48
2019-04-30T12:39:34.012Z,16.10
2019-04-30T12:42:08.752Z,17.02
2019-04-30T12:44:40.822Z,16.30
2019-04-30T12:47:12.578Z,17.40
2019-04-30T12:50:04.306Z,22.87
2019-04-30T12:52:40.840Z,14.87
2019-04-30T12:55:33.123Z,17.23
2019-04-30T12:58:06.065Z,16.55
2019-04-30T13:00:39.238Z,16.15
2019-04-30T13:03:11.122Z,19.48
2019-04-30T13:05:43.156Z,19.82
2019-04-30T13:08:16.164Z,18.85
2019-04-30T13:10:51.429Z,18.17
2019-04-30T13:13:26.260Z,19.92
2019-04-30T13:16:00.029Z,20.27
2019-04-30T13:18:33.543Z,18.75
2019-04-30T13:21:05.280Z,19.05
2019-04-30T13:23:38.903Z,17.05
2019-04-30T13:26:10.734Z,17.10
2019-04-30T13:28:55.830Z,17.37
2019-04-30T13:31:29.442Z,16.62
2019-04-30T13:34:25.986Z,15.63
2019-04-30T13:36:59.390Z,15.25
2019-04-30T13:39:50.218Z,15.10
2019-04-30T13:42:20.597Z,13.98
2019-04-30T13:44:52.900Z,12.43
2019-04-30T13:47:25.033Z,12.43
2019-04-30T13:49:56.777Z,11.70
2019-04-30T13:52:28.910Z,10.75
2019-04-30T13:55:03.291Z,10.55
2019-04-30T13:57:35.037Z,10.40
2019-04-30T14:00:08.718Z,9.38
2019-04-30T14:02:47.633Z,9.43
2019-04-30T14:05:19.390Z,10.93
2019-04-30T14:08:13.035Z,9.95
2019-04-30T14:10:45.941Z,10.13
2019-04-30T14:13:17.683Z,9.25
2019-04-30T14:15:49.561Z,8.60
2019-04-30T14:18:28.561Z,8.95
2019-04-30T14:20:54.915Z,9.63
2019-04-30T14:23:28.574Z,9.95
2019-04-30T14:26:01.657Z,10.60
2019-04-30T14:28:33.441Z,9.88
2019-04-30T14:31:05.545Z,10.60
2019-04-30T14:33:37.278Z,10.88
2019-04-30T14:36:09.384Z,11.08
2019-04-30T14:38:41.243Z,10.98
2019-04-30T14:41:14.030Z,13.93
2019-04-30T14:43:52.051Z,12.03
2019-04-30T14:46:43.429Z,11.40
2019-04-30T14:49:33.648Z,10.28
2019-04-30T14:52:06.215Z,9.78
2019-04-30T14:54:58.657Z,9.93
2019-04-30T14:57:51.073Z,10.65
2019-04-30T15:00:40.301Z,8.78
2019-04-30T15:03:14.169Z,10.78
2019-04-30T15:05:49.468Z,10.80
2019-04-30T15:08:19.843Z,9.48
2019-04-30T15:10:51.636Z,9.95
2019-04-30T15:13:23.446Z,9.75
2019-04-30T15:15:55.475Z,9.33
2019-04-30T15:18:29.034Z,7.90
2019-04-30T15:21:00.791Z,8.98
2019-04-30T15:23:58.764Z,8.30
2019-04-30T15:26:25.756Z,8.10
2019-04-30T15:29:00.020Z,8.30
2019-04-30T15:31:32.544Z,9.90
2019-04-30T15:34:12.680Z,9.45
2019-04-30T15:36:44.396Z,9.90
2019-04-30T15:39:36.349Z,13.83
2019-04-30T15:42:09.107Z,10.18
2019-04-30T15:44:45.234Z,8.98
2019-04-30T15:47:14.390Z,8.98
2019-04-30T15:49:46.451Z,8.23
2019-04-30T15:52:18.922Z,8.98
2019-04-30T15:54:51.026Z,8.70
2019-04-30T15:57:22.791Z,9.63
2019-04-30T15:59:54.583Z,9.53
2019-04-30T16:02:57.087Z,10.28
2019-04-30T16:05:32.126Z,10.80
2019-04-30T16:08:25.560Z,10.45
2019-04-30T16:11:14.726Z,9.88
2019-04-30T16:14:18.665Z,9.23
2019-04-30T16:17:15.400Z,9.43
2019-04-30T16:19:47.473Z,9.58
2019-04-30T16:22:20.856Z,10.05
2019-04-30T16:24:54.650Z,8.25
2019-04-30T16:27:26.339Z,8.08
2019-04-30T16:29:59.499Z,8.80
2019-04-30T16:32:31.730Z,7.55
2019-04-30T16:35:03.449Z,7.35
2019-04-30T16:37:35.238Z,7.12
2019-04-30T16:40:08.304Z,7.22
2019-04-30T16:42:40.538Z,7.30
2019-04-30T16:45:14.143Z,6.12
2019-04-30T16:47:45.925Z,5.70
2019-04-30T16:50:18.796Z,6.12
2019-04-30T16:52:52.441Z,6.12
2019-04-30T16:55:24.212Z,6.28
2019-04-30T16:57:56.292Z,6.35
2019-04-30T17:00:29.074Z,6.30
2019-04-30T17:03:06.201Z,5.85
2019-04-30T17:05:45.413Z,6.75
2019-04-30T17:08:40.158Z,6.83
2019-04-30T17:11:33.875Z,6.17
2019-04-30T17:14:07.936Z,6.08
2019-04-30T17:16:40.135Z,6.40
2019-04-30T17:19:13.718Z,6.42
2019-04-30T17:21:46.764Z,6.50
2019-04-30T17:24:19.399Z,6.28
2019-04-30T17:26:51.647Z,14.30
2019-04-30T17:29:23.360Z,6.30
2019-04-30T17:31:55.351Z,6.28
2019-04-30T17:34:29.140Z,6.72
2019-04-30T17:37:00.626Z,6.20
2019-04-30T17:39:34.311Z,5.90
2019-04-30T17:42:06.094Z,4.72
2019-04-30T17:44:53.798Z,5.35
2019-04-30T17:47:15.354Z,4.90
2019-04-30T17:49:48.389Z,4.97
2019-04-30T17:52:22.190Z,7.70
2019-04-30T17:54:56.698Z,8.05
2019-04-30T17:57:33.858Z,5.08
2019-04-30T18:00:02.324Z,9.35
2019-04-30T18:02:39.205Z,6.35
2019-04-30T18:05:13.807Z,13.68
2019-04-30T18:07:45.761Z,7.70
2019-04-30T18:10:19.530Z,6.10
2019-04-30T18:12:51.379Z,6.97
2019-04-30T18:15:23.181Z,5.37
2019-04-30T18:18:12.722Z,5.35
2019-04-30T18:21:21.364Z,5.37
2019-04-30T18:24:24.253Z,5.10
2019-04-30T18:27:14.961Z,4.78
2019-04-30T18:29:47.219Z,5.28
2019-04-30T18:32:20.488Z,5.22
2019-04-30T18:34:52.253Z,5.15
2019-04-30T18:37:24.393Z,4.92
2019-04-30T18:39:56.112Z,4.70
2019-04-30T18:42:29.052Z,4.95
2019-04-30T18:45:01.067Z,5.17
2019-04-30T18:47:34.332Z,5.40
2019-04-30T18:50:06.502Z,5.72
2019-04-30T18:52:40.147Z,6.50
2019-04-30T18:55:11.989Z,5.97
2019-04-30T18:57:55.759Z,10.98
2019-04-30T19:00:21.186Z,8.38
2019-04-30T19:02:52.974Z,6.40
2019-04-30T19:05:29.390Z,6.10
2019-04-30T19:08:06.216Z,5.72
2019-04-30T19:10:58.900Z,6.30
2019-04-30T19:14:01.336Z,8.08
2019-04-30T19:16:53.814Z,8.05
2019-04-30T19:19:47.294Z,8.30
2019-04-30T19:22:19.238Z,6.42
2019-04-30T19:24:57.368Z,7.30
2019-04-30T19:27:24.859Z,7.00
2019-04-30T19:29:56.753Z,7.67
2019-04-30T19:32:30.461Z,7.97
2019-04-30T19:35:02.378Z,11.43
2019-04-30T19:37:38.648Z,11.93
2019-04-30T19:40:11.644Z,10.93
2019-04-30T19:42:43.978Z,9.95
2019-04-30T19:45:15.844Z,10.58
2019-04-30T19:47:48.983Z,10.20
2019-04-30T19:50:21.120Z,10.28
2019-04-30T19:52:53.049Z,10.65
2019-04-30T19:55:24.835Z,11.80
2019-04-30T19:57:59.715Z,11.00
2019-04-30T20:00:31.147Z,12.10
2019-04-30T20:03:03.103Z,11.68
2019-04-30T20:05:35.386Z,12.47
2019-04-30T20:08:10.813Z,14.13
2019-04-30T20:10:41.138Z,13.70
2019-04-30T20:13:13.018Z,13.03
2019-04-30T20:15:44.855Z,13.20
2019-04-30T20:18:19.000Z,14.53
2019-04-30T20:20:52.701Z,14.20
2019-04-30T20:23:26.393Z,15.38
2019-04-30T20:25:58.354Z,14.78
2019-04-30T20:28:38.927Z,15.88
2019-04-30T20:31:04.317Z,16.70
2019-04-30T20:33:36.129Z,15.90
2019-04-30T20:36:09.186Z,15.93
2019-04-30T20:39:18.413Z,15.78
2019-04-30T20:41:52.867Z,17.00
2019-04-30T20:44:24.700Z,15.50
2019-04-30T20:46:56.548Z,16.23
2019-04-30T20:49:29.204Z,16.87
2019-04-30T20:52:03.553Z,16.90
2019-04-30T20:54:38.956Z,16.25
2019-04-30T20:57:10.736Z,14.98
2019-04-30T20:59:42.595Z,15.90
2019-04-30T21:02:18.770Z,16.02
2019-04-30T21:04:52.338Z,15.83
2019-04-30T21:07:24.140Z,14.75
2019-04-30T21:09:58.305Z,16.90
2019-04-30T21:12:30.037Z,16.57
2019-04-30T21:15:01.941Z,17.27
2019-04-30T21:17:34.921Z,17.02
2019-04-30T21:20:09.484Z,15.35
2019-04-30T21:22:42.204Z,16.60
2019-04-30T21:25:14.052Z,16.32
2019-04-30T21:27:45.919Z,16.60
2019-04-30T21:30:17.767Z,16.55
2019-04-30T21:33:11.240Z,20.37
2019-04-30T21:36:08.803Z,19.17
2019-04-30T21:38:41.907Z,16.10
2019-04-30T21:41:19.577Z,17.05
2019-04-30T21:43:51.727Z,16.97
2019-04-30T21:46:25.217Z,17.10
2019-04-30T21:48:58.724Z,18.30
2019-04-30T21:51:30.801Z,17.52
2019-04-30T21:54:02.831Z,17.23
2019-04-30T21:56:37.583Z,18.17
2019-04-30T21:59:23.541Z,18.55
2019-04-30T22:01:44.522Z,18.92
2019-04-30T22:04:16.493Z,17.00
2019-04-30T22:06:49.475Z,17.82
2019-04-30T22:09:21.719Z,17.75
2019-04-30T22:11:53.548Z,18.15
2019-04-30T22:14:25.449Z,18.57
2019-04-30T22:16:59.548Z,19.48
2019-04-30T22:19:31.319Z,18.00
2019-04-30T22:22:03.182Z,17.48
2019-04-30T22:24:35.089Z,19.50
2019-04-30T22:27:06.991Z,20.57
2019-04-30T22:29:42.320Z,19.90
2019-04-30T22:32:14.230Z,17.98
2019-04-30T22:34:46.025Z,16.75
2019-04-30T22:37:19.619Z,18.40
2019-04-30T22:40:02.887Z,18.82
2019-04-30T22:42:36.912Z,17.07
2019-04-30T22:45:30.627Z,19.05
2019-04-30T22:48:02.970Z,18.70
2019-04-30T22:50:35.213Z,19.35
2019-04-30T22:53:07.091Z,21.05
2019-04-30T22:55:38.872Z,18.82
2019-04-30T22:58:12.118Z,19.25
2019-04-30T23:00:46.008Z,19.60
2019-04-30T23:03:24.265Z,18.25
2019-04-30T23:05:56.163Z,19.00
2019-04-30T23:08:28.110Z,18.67
2019-04-30T23:11:00.410Z,19.35
2019-04-30T23:13:32.194Z,19.62
2019-04-30T23:16:04.115Z,21.12
2019-04-30T23:18:38.982Z,20.35
2019-04-30T23:21:11.983Z,20.97
2019-04-30T23:23:43.839Z,19.60
2019-04-30T23:26:15.676Z,19.50
2019-04-30T23:28:49.163Z,20.92
2019-04-30T23:31:21.496Z,19.25
2019-04-30T23:33:53.474Z,22.30
2019-04-30T23:36:25.243Z,20.35
2019-04-30T23:38:59.396Z,21.07
2019-04-30T23:41:33.709Z,19.90
2019-04-30T23:44:06.466Z,18.15
2019-04-30T23:46:39.791Z,20.45
2019-04-30T23:49:11.834Z,20.37
2019-04-30T23:51:43.667Z,21.17
2019-04-30T23:54:15.979Z,20.00
2019-04-30T23:56:47.803Z,19.45
2019-04-30T23:59:19.662Z,18.90
